Time;durP1;ratioP1;P1;durP2;ratioP2;P2;SDS_P1;SDS_P2;PMS_P1;PMS_P2;Temp;Humidity;BMP_temperature;BMP_pressure;BME280_temperature;BME280_humidity;BME280_pressure;Samples;Min_cycle;Max_cycle;Signal;HPM_P1;HPM_P2
2023/03/25 00:02:20;;;;;;;7.60;2.40;;;;;;;-145.18;100.00;60484.78;5112889;28;20031;-68
2023/03/25 00:04:50;;;;;;;10.43;2.47;;;;;;;-145.18;100.00;60484.78;5113383;28;20040;-69
2023/03/25 00:07:17;;;;;;;10.37;2.60;;;;;;;-145.18;100.00;60484.78;5113045;28;20028;-69
2023/03/25 00:09:43;;;;;;;5.93;2.20;;;;;;;-145.18;100.00;60484.78;5113250;28;20102;-69
2023/03/25 00:12:08;;;;;;;6.80;2.27;;;;;;;-145.18;100.00;60484.78;5113079;28;20061;-69
2023/03/25 00:14:33;;;;;;;6.43;2.00;;;;;;;-145.18;100.00;60484.78;5113547;28;20028;-68
2023/03/25 00:17:00;;;;;;;6.50;1.90;;;;;;;-145.18;100.00;60484.78;5109366;28;20059;-69
2023/03/25 00:19:26;;;;;;;7.50;2.13;;;;;;;-145.18;100.00;60484.78;5101610;28;20031;-69
2023/03/25 00:21:52;;;;;;;6.70;1.80;;;;;;;-145.18;100.00;60484.78;5113103;28;20077;-69
2023/03/25 00:24:18;;;;;;;7.37;1.47;;;;;;;-145.18;100.00;60484.78;5113237;28;20041;-68
2023/03/25 00:26:45;;;;;;;6.23;2.00;;;;;;;-145.18;100.00;60484.78;5113139;28;20389;-69
2023/03/25 00:29:12;;;;;;;6.87;1.40;;;;;;;-145.18;100.00;60484.78;5113053;28;20019;-69
2023/03/25 00:31:39;;;;;;;6.20;1.60;;;;;;;-145.18;100.00;60484.78;5113265;28;20487;-69
2023/03/25 00:34:04;;;;;;;10.90;1.87;;;;;;;-145.18;100.00;60484.78;5112924;28;20073;-69
2023/03/25 00:36:30;;;;;;;4.47;1.30;;;;;;;-145.18;100.00;60484.78;5113063;28;20476;-69
2023/03/25 00:38:55;;;;;;;7.10;1.67;;;;;;;-145.18;100.00;60484.78;5113886;28;20032;-69
2023/03/25 00:41:26;;;;;;;6.33;1.70;;;;;;;-145.18;100.00;60484.78;5117134;28;20076;-69
2023/03/25 00:43:57;;;;;;;7.90;1.53;;;;;;;-145.18;100.00;60484.78;5117124;28;20104;-69
2023/03/25 00:46:25;;;;;;;5.35;1.85;;;;;;;-145.18;100.00;60484.78;5117182;28;20501;-69
2023/03/25 00:48:51;;;;;;;4.77;1.53;;;;;;;-145.18;100.00;60484.78;5116703;28;20035;-69
2023/03/25 00:51:18;;;;;;;6.50;1.73;;;;;;;-145.18;100.00;60484.78;5117110;28;20068;-69
2023/03/25 00:53:44;;;;;;;4.77;1.50;;;;;;;-145.18;100.00;60484.78;5115438;28;20487;-69
2023/03/25 00:56:11;;;;;;;5.53;1.67;;;;;;;-145.18;100.00;60484.78;5116525;28;20039;-69
2023/03/25 00:58:37;;;;;;;4.47;1.40;;;;;;;-145.18;100.00;60484.78;5116467;28;20509;-69
2023/03/25 01:01:26;;;;;;;5.37;1.40;;;;;;;-145.18;100.00;60484.78;5102581;27;20050;-69
2023/03/25 01:03:56;;;;;;;4.73;1.50;;;;;;;-145.18;100.00;60484.78;5113632;28;20476;-69
2023/03/25 01:06:23;;;;;;;5.53;1.60;;;;;;;-145.18;100.00;60484.78;5116882;28;20532;-69
2023/03/25 01:08:51;;;;;;;4.80;1.27;;;;;;;-145.18;100.00;60484.78;5116346;28;20027;-69
2023/03/25 01:11:27;;;;;;;4.03;1.40;;;;;;;-145.18;100.00;60484.78;5116870;28;20084;-69
2023/03/25 01:13:55;;;;;;;4.33;1.40;;;;;;;-145.18;100.00;60484.78;5116458;28;20487;-68
2023/03/25 01:16:21;;;;;;;4.67;1.50;;;;;;;-145.18;100.00;60484.78;5116868;28;20038;-69
2023/03/25 01:18:46;;;;;;;6.03;1.50;;;;;;;-145.18;100.00;60484.78;5115737;28;20118;-69
2023/03/25 01:21:12;;;;;;;5.93;1.60;;;;;;;-145.18;100.00;60484.78;5116458;28;20031;-69
2023/03/25 01:23:37;;;;;;;7.33;2.00;;;;;;;-145.18;100.00;60484.78;5116038;28;20031;-69
2023/03/25 01:26:03;;;;;;;4.60;1.50;;;;;;;-145.18;100.00;60484.78;5116189;28;20058;-69
2023/03/25 01:28:29;;;;;;;5.07;1.40;;;;;;;-145.18;100.00;60484.78;5116158;28;20103;-69
2023/03/25 01:31:02;;;;;;;5.03;1.70;;;;;;;-145.18;100.00;60484.78;5116198;28;20062;-69
2023/03/25 01:33:28;;;;;;;4.63;1.70;;;;;;;-145.18;100.00;60484.78;5116058;28;20028;-69
2023/03/25 01:35:53;;;;;;;6.70;1.53;;;;;;;-145.18;100.00;60484.78;5116367;28;20365;-69
2023/03/25 01:38:20;;;;;;;6.33;1.70;;;;;;;-145.18;100.00;60484.78;5115900;28;20034;-69
2023/03/25 01:40:45;;;;;;;6.27;1.90;;;;;;;-145.18;100.00;60484.78;5116203;28;20020;-69
2023/03/25 01:43:12;;;;;;;6.93;1.40;;;;;;;-145.18;100.00;60484.78;5115669;28;20032;-69
2023/03/25 01:45:38;;;;;;;3.87;1.30;;;;;;;-145.18;100.00;60484.78;5116022;28;20395;-69
2023/03/25 01:48:18;;;;;;;3.97;1.60;;;;;;;-145.18;100.00;60484.78;5115555;28;20024;-69
2023/03/25 01:50:55;;;;;;;3.80;1.63;;;;;;;-145.18;100.00;60484.78;5115274;28;20055;-69
2023/03/25 01:53:20;;;;;;;4.47;1.23;;;;;;;-145.18;100.00;60484.78;5106619;28;20020;-69
2023/03/25 01:55:47;;;;;;;5.90;1.80;;;;;;;-145.18;100.00;60484.78;5103784;28;20501;-68
2023/03/25 01:58:16;;;;;;;5.77;1.77;;;;;;;-145.18;100.00;60484.78;5116105;27;20031;-69
2023/03/25 02:04:08;;;;;;;7.07;1.70;;;;;;;-145.18;100.00;60484.78;5104794;22;20131;-65
2023/03/25 02:06:47;;;;;;;3.33;1.37;;;;;;;-145.18;100.00;60484.78;5094893;28;20412;-65
2023/03/25 02:09:16;;;;;;;5.83;1.73;;;;;;;-145.18;100.00;60484.78;5074949;28;20039;-65
2023/03/25 02:11:41;;;;;;;5.33;1.30;;;;;;;-145.18;100.00;60484.78;5078445;28;20423;-65
2023/03/25 02:14:11;;;;;;;6.30;1.80;;;;;;;-145.18;100.00;60484.78;5094779;28;20066;-65
2023/03/25 02:17:15;;;;;;;8.33;1.70;;;;;;;-145.18;100.00;60484.78;5094597;28;20042;-65
2023/03/25 02:20:24;;;;;;;4.80;1.63;;;;;;;-145.18;100.00;60484.78;5048771;28;20131;-65
2023/03/25 02:23:44;;;;;;;8.63;1.90;;;;;;;-145.18;100.00;60484.78;5040831;28;20497;-65
2023/03/25 02:26:40;;;;;;;9.47;1.83;;;;;;;-145.18;100.00;60484.78;4973865;28;20042;-65
2023/03/25 02:29:38;;;;;;;5.43;1.80;;;;;;;-145.18;100.00;60484.78;4973649;28;20482;-65
2023/03/25 02:33:00;;;;;;;5.37;1.70;;;;;;;-145.18;100.00;60484.78;4974044;28;20093;-65
2023/03/25 02:35:56;;;;;;;6.18;2.17;;;;;;;-145.18;100.00;60484.78;4935221;29;20559;-66
2023/03/25 02:38:45;;;;;;;9.50;2.40;;;;;;;-145.18;100.00;60484.78;4915876;29;20523;-65
2023/03/25 02:41:21;;;;;;;7.73;2.00;;;;;;;-145.18;100.00;60484.78;4915554;29;20436;-65
2023/03/25 02:43:55;;;;;;;10.77;2.00;;;;;;;-145.18;100.00;60484.78;4915958;29;20052;-64
2023/03/25 02:46:24;;;;;;;7.83;2.27;;;;;;;-145.18;100.00;60484.78;4915656;29;20509;-65
2023/03/25 02:48:59;;;;;;;7.07;2.10;;;;;;;-145.18;100.00;60484.78;4915935;29;20043;-64
2023/03/25 02:51:30;;;;;;;11.20;2.20;;;;;;;-145.18;100.00;60484.78;4915598;29;20032;-65
2023/03/25 02:54:02;;;;;;;9.07;2.20;;;;;;;-145.18;100.00;60484.78;4915803;29;20568;-65
2023/03/25 02:56:31;;;;;;;8.25;2.38;;;;;;;-145.18;100.00;60484.78;4953304;29;20055;-65
2023/03/25 02:58:59;;;;;;;7.23;1.90;;;;;;;-145.18;100.00;60484.78;4954144;28;20043;-66
2023/03/25 03:01:25;;;;;;;7.20;2.53;;;;;;;-145.18;100.00;60484.78;4992269;28;20050;-66
2023/03/25 03:03:54;;;;;;;5.53;1.90;;;;;;;-145.18;100.00;60484.78;4990516;28;20145;-65
2023/03/25 03:06:21;;;;;;;5.87;1.87;;;;;;;-145.18;100.00;60484.78;5016167;28;20088;-65
2023/03/25 03:09:04;;;;;;;8.73;2.23;;;;;;;-145.18;100.00;60484.78;5031740;28;20090;-65
2023/03/25 03:12:08;;;;;;;7.90;2.80;;;;;;;-145.18;100.00;60484.78;5031054;28;20104;-66
2023/03/25 03:15:05;;;;;;;6.87;2.40;;;;;;;-145.18;100.00;60484.78;5022716;28;20036;-65
2023/03/25 03:17:42;;;;;;;9.63;2.33;;;;;;;-145.18;100.00;60484.78;5087444;28;20380;-65
2023/03/25 03:20:59;;;;;;;7.43;2.00;;;;;;;-145.18;100.00;60484.78;5092557;28;20369;-65
2023/03/25 03:23:35;;;;;;;7.57;2.13;;;;;;;-145.18;100.00;60484.78;5051344;28;20452;-65
2023/03/25 03:26:34;;;;;;;7.73;2.30;;;;;;;-145.18;100.00;60484.78;5051169;28;20059;-65
2023/03/25 03:29:14;;;;;;;8.10;2.03;;;;;;;-145.18;100.00;60484.78;5031146;28;20091;-65
2023/03/25 03:31:51;;;;;;;8.40;2.47;;;;;;;-145.18;100.00;60484.78;5035853;28;20526;-65
2023/03/25 03:34:26;;;;;;;7.30;2.13;;;;;;;-145.18;100.00;60484.78;5047297;28;20129;-65
2023/03/25 03:36:54;;;;;;;10.93;3.00;;;;;;;-145.18;100.00;60484.78;5031367;28;20033;-66
2023/03/25 03:39:26;;;;;;;5.83;1.90;;;;;;;-145.18;100.00;60484.78;5034960;28;20044;-65
2023/03/25 03:41:58;;;;;;;8.50;2.10;;;;;;;-145.18;100.00;60484.78;5051407;28;20501;-66
2023/03/25 03:44:30;;;;;;;8.55;2.72;;;;;;;-145.18;100.00;60484.78;5047187;28;20120;-66
2023/03/25 03:47:07;;;;;;;8.57;2.10;;;;;;;-145.18;100.00;60484.78;5031172;28;20041;-65
2023/03/25 03:49:37;;;;;;;8.73;1.83;;;;;;;-145.18;100.00;60484.78;5035560;28;20025;-65
2023/03/25 03:52:33;;;;;;;7.80;1.93;;;;;;;-145.18;100.00;60484.78;5051372;28;20035;-69
2023/03/25 03:55:22;;;;;;;12.53;2.33;;;;;;;-145.18;100.00;60484.78;5075467;28;20044;-69
2023/03/25 03:57:58;;;;;;;10.43;1.70;;;;;;;-145.18;100.00;60484.78;5093792;28;20036;-70
2023/03/25 04:00:35;;;;;;;7.00;2.13;;;;;;;-145.18;100.00;60484.78;5090767;28;20107;-67
2023/03/25 04:03:13;;;;;;;9.00;2.00;;;;;;;-145.18;100.00;60484.78;5082940;28;20035;-66
2023/03/25 04:05:45;;;;;;;10.47;2.10;;;;;;;-145.18;100.00;60484.78;5092922;28;20055;-66
2023/03/25 04:08:22;;;;;;;11.52;2.58;;;;;;;-145.18;100.00;60484.78;5092906;28;20020;-66
2023/03/25 04:11:16;;;;;;;6.47;1.57;;;;;;;-145.18;100.00;60484.78;5093105;28;20040;-67
2023/03/25 04:13:45;;;;;;;11.37;2.30;;;;;;;-145.18;100.00;60484.78;5091360;28;20044;-66
2023/03/25 04:16:11;;;;;;;12.60;2.60;;;;;;;-145.18;100.00;60484.78;5097140;28;20024;-66
2023/03/25 04:18:38;;;;;;;8.90;2.07;;;;;;;-145.18;100.00;60484.78;5097376;28;20032;-65
2023/03/25 04:21:04;;;;;;;7.80;1.30;;;;;;;-145.18;100.00;60484.78;5096603;28;20030;-66
2023/03/25 04:23:30;;;;;;;5.83;1.60;;;;;;;-145.18;100.00;60484.78;5097004;28;20032;-67
2023/03/25 04:25:56;;;;;;;6.47;1.40;;;;;;;-145.18;100.00;60484.78;5096967;28;20091;-65
2023/03/25 04:28:22;;;;;;;8.77;1.90;;;;;;;-145.18;100.00;60484.78;5092526;28;20021;-65
2023/03/25 04:30:54;;;;;;;8.73;1.80;;;;;;;-145.18;100.00;60484.78;5084585;28;20062;-65
2023/03/25 04:33:21;;;;;;;8.13;1.95;;;;;;;-145.18;100.00;60484.78;5097224;28;20399;-65
2023/03/25 04:35:49;;;;;;;5.87;1.63;;;;;;;-145.18;100.00;60484.78;5096947;28;20510;-66
2023/03/25 04:38:15;;;;;;;9.00;2.13;;;;;;;-145.18;100.00;60484.78;5096846;28;20039;-66
2023/03/25 04:40:45;;;;;;;10.10;2.70;;;;;;;-145.18;100.00;60484.78;5097036;28;20586;-65
2023/03/25 04:43:15;;;;;;;7.40;1.80;;;;;;;-145.18;100.00;60484.78;5096739;28;20028;-66
2023/03/25 04:45:48;;;;;;;8.27;1.83;;;;;;;-145.18;100.00;60484.78;5096333;28;20505;-66
2023/03/25 04:48:40;;;;;;;9.40;2.10;;;;;;;-145.18;100.00;60484.78;5096776;28;20073;-66
2023/03/25 04:51:09;;;;;;;9.70;1.60;;;;;;;-145.18;100.00;60484.78;5096451;28;20146;-66
2023/03/25 04:53:35;;;;;;;8.53;1.97;;;;;;;-145.18;100.00;60484.78;5096705;28;20031;-65
2023/03/25 04:56:02;;;;;;;4.30;1.40;;;;;;;-145.18;100.00;60484.78;5095931;28;20020;-66
2023/03/25 04:58:27;;;;;;;6.87;1.87;;;;;;;-145.18;100.00;60484.78;5096195;28;20047;-65
2023/03/25 05:00:53;;;;;;;7.80;2.00;;;;;;;-145.18;100.00;60484.78;5096409;28;20024;-66
2023/03/25 05:03:23;;;;;;;7.63;1.80;;;;;;;-145.18;100.00;60484.78;5092519;28;20031;-66
2023/03/25 05:05:52;;;;;;;8.53;2.20;;;;;;;-145.18;100.00;60484.78;5096429;28;20036;-66
2023/03/25 05:08:20;;;;;;;8.77;1.70;;;;;;;-145.18;100.00;60484.78;5096156;28;20369;-66
2023/03/25 05:10:46;;;;;;;12.87;2.57;;;;;;;-145.18;100.00;60484.78;5096108;28;20020;-65
2023/03/25 05:13:12;;;;;;;8.30;2.20;;;;;;;-145.18;100.00;60484.78;5095939;28;20472;-65
2023/03/25 05:15:38;;;;;;;9.87;2.23;;;;;;;-145.18;100.00;60484.78;5092718;28;20070;-65
2023/03/25 05:18:12;;;;;;;4.57;1.83;;;;;;;-145.18;100.00;60484.78;5096409;28;20033;-65
2023/03/25 05:20:40;;;;;;;5.53;1.70;;;;;;;-145.18;100.00;60484.78;5094980;28;20052;-65
2023/03/25 05:23:11;;;;;;;7.77;1.70;;;;;;;-145.18;100.00;60484.78;5095750;28;20507;-65
2023/03/25 05:25:41;;;;;;;6.47;1.40;;;;;;;-145.18;100.00;60484.78;5094402;28;20032;-65
2023/03/25 05:28:08;;;;;;;6.17;1.80;;;;;;;-145.18;100.00;60484.78;5095632;28;20028;-65
2023/03/25 05:30:40;;;;;;;5.23;1.80;;;;;;;-145.18;100.00;60484.78;5096012;28;20429;-65
2023/03/25 05:33:06;;;;;;;;;;;;;;;-145.18;100.00;60484.78;5096190;28;20089;-65
2023/03/25 05:35:31;;;;;;;6.97;1.70;;;;;;;-145.18;100.00;60484.78;5095827;28;20368;-66
2023/03/25 05:37:57;;;;;;;6.20;1.93;;;;;;;-145.18;100.00;60484.78;5095396;28;20032;-65
2023/03/25 05:40:22;;;;;;;5.97;1.57;;;;;;;-145.18;100.00;60484.78;5095704;28;20076;-65
2023/03/25 05:42:48;;;;;;;6.90;1.60;;;;;;;-145.18;100.00;60484.78;5095093;28;20032;-65
2023/03/25 05:45:15;;;;;;;6.63;1.70;;;;;;;-145.18;100.00;60484.78;5095643;28;20111;-65
2023/03/25 05:47:41;;;;;;;6.63;1.90;;;;;;;-145.18;100.00;60484.78;5095684;28;20451;-65
2023/03/25 05:50:09;;;;;;;5.90;1.63;;;;;;;-145.18;100.00;60484.78;5095582;28;20028;-65
2023/03/25 05:52:35;;;;;;;8.57;1.87;;;;;;;-145.18;100.00;60484.78;5095390;28;20028;-65
2023/03/25 05:55:02;;;;;;;6.40;2.20;;;;;;;-145.18;100.00;60484.78;5095259;28;20538;-65
2023/03/25 05:57:28;;;;;;;5.37;1.80;;;;;;;-145.18;100.00;60484.78;5095522;28;20034;-65
2023/03/25 05:59:54;;;;;;;7.77;2.20;;;;;;;-145.18;100.00;60484.78;5095251;28;20484;-65
2023/03/25 06:02:20;;;;;;;7.13;2.00;;;;;;;-145.18;100.00;60484.78;5095119;28;20357;-65
2023/03/25 06:04:50;;;;;;;7.47;2.00;;;;;;;-145.18;100.00;60484.78;5089356;28;20403;-65
2023/03/25 06:07:18;;;;;;;6.77;2.13;;;;;;;-145.18;100.00;60484.78;5094769;28;20024;-65
2023/03/25 06:09:48;;;;;;;6.17;2.40;;;;;;;-145.18;100.00;60484.78;5094358;28;20058;-65
2023/03/25 06:12:21;;;;;;;5.53;1.70;;;;;;;-145.18;100.00;60484.78;5094950;28;20028;-65
2023/03/25 06:14:52;;;;;;;4.77;1.40;;;;;;;-145.18;100.00;60484.78;5094804;28;20027;-66
2023/03/25 06:17:20;;;;;;;4.78;1.75;;;;;;;-145.18;100.00;60484.78;5095412;28;20356;-65
2023/03/25 06:19:46;;;;;;;8.27;2.00;;;;;;;-145.18;100.00;60484.78;5094462;28;20531;-65
2023/03/25 06:22:12;;;;;;;7.17;2.27;;;;;;;-145.18;100.00;60484.78;5095050;28;20032;-65
2023/03/25 06:24:39;;;;;;;5.47;2.30;;;;;;;-145.18;100.00;60484.78;5094815;28;20032;-66
2023/03/25 06:27:07;;;;;;;8.70;2.13;;;;;;;-145.18;100.00;60484.78;5094744;28;20031;-65
2023/03/25 06:29:33;;;;;;;6.00;2.43;;;;;;;-145.18;100.00;60484.78;5091477;28;20073;-65
2023/03/25 06:31:59;;;;;;;4.97;1.60;;;;;;;-145.18;100.00;60484.78;5094759;28;20082;-65
2023/03/25 06:34:25;;;;;;;3.87;1.40;;;;;;;-145.18;100.00;60484.78;5094743;28;20418;-65
2023/03/25 06:36:52;;;;;;;6.93;2.00;;;;;;;-145.18;100.00;60484.78;5090600;28;20029;-65
2023/03/25 06:39:19;;;;;;;9.97;2.00;;;;;;;-145.18;100.00;60484.78;5085103;28;20043;-65
2023/03/25 06:41:44;;;;;;;6.93;1.93;;;;;;;-145.18;100.00;60484.78;5085587;28;20016;-65
2023/03/25 06:44:10;;;;;;;5.43;1.53;;;;;;;-145.18;100.00;60484.78;5087218;28;20123;-65
2023/03/25 06:46:36;;;;;;;6.53;1.87;;;;;;;-145.18;100.00;60484.78;5092330;28;20052;-65
2023/03/25 06:49:02;;;;;;;5.60;1.70;;;;;;;-145.18;100.00;60484.78;5075516;28;20042;-65
2023/03/25 06:51:27;;;;;;;4.97;2.00;;;;;;;-145.18;100.00;60484.78;5072922;28;20135;-65
2023/03/25 06:53:53;;;;;;;6.60;1.77;;;;;;;-145.18;100.00;60484.78;5089659;28;20039;-65
2023/03/25 06:56:18;;;;;;;8.20;2.27;;;;;;;-145.18;100.00;60484.78;5089749;28;20028;-65
2023/03/25 06:58:44;;;;;;;6.03;2.03;;;;;;;-145.18;100.00;60484.78;5084828;28;20370;-65
2023/03/25 07:01:10;;;;;;;5.77;1.77;;;;;;;-145.18;100.00;60484.78;5073092;28;20488;-65
2023/03/25 07:03:37;;;;;;;4.60;2.17;;;;;;;-145.18;100.00;60484.78;5073037;28;20365;-64
2023/03/25 07:06:04;;;;;;;8.20;2.30;;;;;;;-145.18;100.00;60484.78;5073416;28;20020;-65
2023/03/25 07:08:29;;;;;;;7.77;2.10;;;;;;;-145.18;100.00;60484.78;5078282;28;20491;-65
2023/03/25 07:11:06;;;;;;;7.07;2.13;;;;;;;-145.18;100.00;60484.78;5084000;28;20025;-64
2023/03/25 07:13:32;;;;;;;5.40;1.33;;;;;;;-145.18;100.00;60484.78;5072895;28;20024;-65
2023/03/25 07:15:58;;;;;;;6.90;1.90;;;;;;;-145.18;100.00;60484.78;5078549;28;20103;-65
2023/03/25 07:18:24;;;;;;;14.10;2.57;;;;;;;-145.18;100.00;60484.78;5074111;28;20107;-65
2023/03/25 07:20:50;;;;;;;5.87;2.00;;;;;;;-145.18;100.00;60484.78;5078495;28;20502;-66
2023/03/25 07:23:18;;;;;;;6.33;1.93;;;;;;;-145.18;100.00;60484.78;5078657;28;20032;-65
2023/03/25 07:25:44;;;;;;;6.17;1.77;;;;;;;-145.18;100.00;60484.78;5082216;28;20094;-64
2023/03/25 07:28:10;;;;;;;6.93;1.97;;;;;;;-145.18;100.00;60484.78;5072691;28;20507;-65
2023/03/25 07:30:35;;;;;;;8.43;1.97;;;;;;;-145.18;100.00;60484.78;5071316;28;20029;-65
2023/03/25 07:33:01;;;;;;;10.97;2.00;;;;;;;-145.18;100.00;60484.78;5075331;28;20024;-65
2023/03/25 07:35:26;;;;;;;6.83;1.90;;;;;;;-145.18;100.00;60484.78;5090752;28;20058;-65
2023/03/25 07:37:52;;;;;;;9.80;2.00;;;;;;;-145.18;100.00;60484.78;5084809;28;20020;-65
2023/03/25 07:40:17;;;;;;;6.30;1.67;;;;;;;-145.18;100.00;60484.78;5078164;28;20039;-65
2023/03/25 07:42:44;;;;;;;4.83;1.50;;;;;;;-145.18;100.00;60484.78;5087727;28;20364;-65
2023/03/25 07:45:10;;;;;;;5.87;1.90;;;;;;;-145.18;100.00;60484.78;5088081;28;20077;-67
2023/03/25 07:47:36;;;;;;;8.83;2.07;;;;;;;-145.18;100.00;60484.78;5079633;28;20455;-68
2023/03/25 07:50:03;;;;;;;5.57;1.93;;;;;;;-145.18;100.00;60484.78;5074634;28;20067;-67
2023/03/25 07:52:29;;;;;;;4.40;1.00;;;;;;;-145.18;100.00;60484.78;5084151;28;20428;-67
2023/03/25 07:54:55;;;;;;;1.70;0.70;;;;;;;-145.18;100.00;60484.78;5079981;28;20112;-66
2023/03/25 07:57:20;;;;;;;3.10;1.30;;;;;;;-145.18;100.00;60484.78;5079194;28;20503;-66
2023/03/25 07:59:49;;;;;;;4.47;1.40;;;;;;;-145.18;100.00;60484.78;5084043;28;20449;-66
2023/03/25 08:02:15;;;;;;;3.47;1.00;;;;;;;-145.18;100.00;60484.78;5086872;28;20024;-66
2023/03/25 08:04:40;;;;;;;11.50;1.70;;;;;;;-145.18;100.00;60484.78;5081645;28;20103;-67
2023/03/25 08:07:06;;;;;;;4.23;1.17;;;;;;;-145.18;100.00;60484.78;5079441;28;20061;-66
2023/03/25 08:09:32;;;;;;;9.20;1.67;;;;;;;-145.18;100.00;60484.78;5083937;28;20391;-67
2023/03/25 08:11:58;;;;;;;4.93;1.10;;;;;;;-145.18;100.00;60484.78;5082331;28;20020;-65
2023/03/25 08:14:23;;;;;;;2.07;0.70;;;;;;;-145.18;100.00;60484.78;5075468;28;20035;-67
2023/03/25 08:16:49;;;;;;;3.13;0.93;;;;;;;-145.18;100.00;60484.78;5081270;28;20040;-66
2023/03/25 08:19:14;;;;;;;7.33;1.47;;;;;;;-145.18;100.00;60484.78;5091045;28;20035;-66
2023/03/25 08:21:41;;;;;;;13.23;1.40;;;;;;;-145.18;100.00;60484.78;5085926;28;20027;-66
2023/03/25 08:24:07;;;;;;;8.83;1.43;;;;;;;-145.18;100.00;60484.78;5080192;28;20078;-68
2023/03/25 08:26:33;;;;;;;6.03;1.30;;;;;;;-145.18;100.00;60484.78;5078024;28;20028;-66
2023/03/25 08:29:01;;;;;;;8.93;2.10;;;;;;;-145.18;100.00;60484.78;5090153;28;20024;-66
2023/03/25 08:31:29;;;;;;;8.47;1.47;;;;;;;-145.18;100.00;60484.78;5074890;28;20039;-66
2023/03/25 08:33:56;;;;;;;6.00;1.60;;;;;;;-145.18;100.00;60484.78;5073829;28;20097;-66
2023/03/25 08:36:22;;;;;;;4.67;1.20;;;;;;;-145.18;100.00;60484.78;5076196;28;20119;-66
2023/03/25 08:38:48;;;;;;;6.97;1.43;;;;;;;-145.18;100.00;60484.78;5074987;28;20067;-66
2023/03/25 08:41:14;;;;;;;4.87;1.67;;;;;;;-145.18;100.00;60484.78;5076296;28;20027;-65
2023/03/25 08:43:40;;;;;;;7.03;1.60;;;;;;;-145.18;100.00;60484.78;5075554;28;20025;-64
2023/03/25 08:46:05;;;;;;;7.93;1.60;;;;;;;-145.18;100.00;60484.78;5075443;28;20032;-63
2023/03/25 08:48:31;;;;;;;4.90;1.20;;;;;;;-145.18;100.00;60484.78;5073128;28;20025;-63
2023/03/25 08:50:56;;;;;;;5.17;1.30;;;;;;;-145.18;100.00;60484.78;5072000;28;20039;-63
2023/03/25 08:53:22;;;;;;;6.38;1.20;;;;;;;-145.18;100.00;60484.78;5071927;28;20021;-63
2023/03/25 08:55:53;;;;;;;5.35;1.33;;;;;;;-145.18;100.00;60484.78;5078586;28;20040;-62
2023/03/25 08:58:19;;;;;;;5.13;1.08;;;;;;;-145.18;100.00;60484.78;5083231;28;20055;-63
2023/03/25 09:00:45;;;;;;;6.10;1.52;;;;;;;-145.18;100.00;60484.78;5092545;28;20024;-62
2023/03/25 09:03:11;;;;;;;4.85;1.30;;;;;;;-145.18;100.00;60484.78;5084551;28;20463;-62
2023/03/25 09:05:37;;;;;;;4.22;1.33;;;;;;;-145.18;100.00;60484.78;5075722;28;20029;-63
2023/03/25 09:08:04;;;;;;;5.20;1.10;;;;;;;-145.18;100.00;60484.78;5079914;28;20036;-62
2023/03/25 09:10:29;;;;;;;3.92;1.13;;;;;;;-145.18;100.00;60484.78;5075191;28;20016;-63
2023/03/25 09:12:55;;;;;;;4.70;1.15;;;;;;;-145.18;100.00;60484.78;5075989;28;20035;-63
2023/03/25 09:15:21;;;;;;;9.25;1.38;;;;;;;-145.18;100.00;60484.78;5077597;28;20032;-63
2023/03/25 09:17:46;;;;;;;3.65;1.17;;;;;;;-145.18;100.00;60484.78;5086397;28;20029;-63
2023/03/25 09:20:12;;;;;;;4.93;1.20;;;;;;;-145.18;100.00;60484.78;5078783;28;20016;-62
2023/03/25 09:22:38;;;;;;;6.38;1.30;;;;;;;-145.18;100.00;60484.78;5077215;28;20028;-62
2023/03/25 09:25:05;;;;;;;5.68;1.42;;;;;;;-145.18;100.00;60484.78;5083570;28;20025;-63
2023/03/25 09:27:31;;;;;;;4.80;1.30;;;;;;;-145.18;100.00;60484.78;5089900;28;20094;-63
2023/03/25 09:29:57;;;;;;;4.17;1.27;;;;;;;-145.18;100.00;60484.78;5089335;28;20031;-64
2023/03/25 09:32:23;;;;;;;4.53;1.50;;;;;;;-145.18;100.00;60484.78;5080986;28;20024;-64
2023/03/25 09:34:48;;;;;;;5.97;1.80;;;;;;;-145.18;100.00;60484.78;5090918;28;20483;-65
2023/03/25 09:37:14;;;;;;;7.07;2.07;;;;;;;-145.18;100.00;60484.78;5080610;28;20016;-65
2023/03/25 09:39:39;;;;;;;5.70;1.77;;;;;;;-145.18;100.00;60484.78;5079752;28;20078;-65
2023/03/25 09:42:36;;;;;;;7.73;1.80;;;;;;;-145.18;100.00;60484.78;5080005;28;20040;-66
2023/03/25 09:45:42;;;;;;;7.17;2.30;;;;;;;-145.18;100.00;60484.78;5093370;28;20032;-66
2023/03/25 09:48:44;;;;;;;5.87;1.90;;;;;;;-145.18;100.00;60484.78;5091895;28;20031;-65
2023/03/25 09:51:29;;;;;;;8.80;1.90;;;;;;;-145.18;100.00;60484.78;5074855;28;20035;-66
2023/03/25 09:54:03;;;;;;;5.67;2.37;;;;;;;-145.18;100.00;60484.78;5088521;28;20449;-64
2023/03/25 09:56:33;;;;;;;8.37;2.40;;;;;;;-145.18;100.00;60484.78;5085890;28;20073;-63
2023/03/25 09:59:06;;;;;;;8.70;1.53;;;;;;;-145.18;100.00;60484.78;5092902;28;20032;-63
2023/03/25 10:02:05;;;;;;;4.93;1.50;;;;;;;-145.18;100.00;60484.78;5075835;28;20107;-63
2023/03/25 10:05:23;;;;;;;4.90;1.50;;;;;;;-145.18;100.00;60484.78;5074403;28;20475;-63
2023/03/25 10:08:22;;;;;;;5.07;1.57;;;;;;;-145.18;100.00;60484.78;4998866;28;20630;-63
2023/03/25 10:11:14;;;;;;;5.03;1.73;;;;;;;-145.18;100.00;60484.78;5027966;28;20047;-63
2023/03/25 10:13:53;;;;;;;4.38;1.45;;;;;;;-145.18;100.00;60484.78;5015663;28;20687;-63
2023/03/25 10:16:37;;;;;;;4.13;1.10;;;;;;;-145.18;100.00;60484.78;5019544;28;20089;-63
2023/03/25 10:19:33;;;;;;;4.97;1.37;;;;;;;-145.18;100.00;60484.78;5019174;28;20096;-64
2023/03/25 10:22:12;;;;;;;2.60;0.90;;;;;;;-145.18;100.00;60484.78;5027135;28;20558;-65
2023/03/25 10:25:00;;;;;;;3.80;0.90;;;;;;;-145.18;100.00;60484.78;5019381;28;20617;-65
2023/03/25 10:27:43;;;;;;;4.10;1.17;;;;;;;-145.18;100.00;60484.78;5017503;28;20489;-64
2023/03/25 10:30:15;;;;;;;5.80;1.07;;;;;;;-145.18;100.00;60484.78;5029835;28;20044;-65
2023/03/25 10:32:54;;;;;;;4.20;1.30;;;;;;;-145.18;100.00;60484.78;5017344;28;20109;-65
2023/03/25 10:35:28;;;;;;;5.77;1.90;;;;;;;-145.18;100.00;60484.78;5022114;28;20076;-64
2023/03/25 10:37:58;;;;;;;4.03;1.53;;;;;;;-145.18;100.00;60484.78;5025910;28;20112;-64
2023/03/25 10:40:28;;;;;;;5.93;1.80;;;;;;;-145.18;100.00;60484.78;5013270;28;20433;-65
2023/03/25 10:43:13;;;;;;;6.40;1.83;;;;;;;-145.18;100.00;60484.78;5063489;28;20115;-64
2023/03/25 10:45:41;;;;;;;6.37;2.20;;;;;;;-145.18;100.00;60484.78;5085541;28;20063;-65
2023/03/25 10:48:14;;;;;;;10.00;2.63;;;;;;;-145.18;100.00;60484.78;5074128;28;20037;-64
2023/03/25 10:50:41;;;;;;;6.27;2.40;;;;;;;-145.18;100.00;60484.78;5077583;28;20031;-65
2023/03/25 10:53:18;;;;;;;9.50;2.40;;;;;;;-145.18;100.00;60484.78;5073346;28;20025;-65
2023/03/25 10:55:46;;;;;;;8.27;2.50;;;;;;;-145.18;100.00;60484.78;5077748;28;20028;-65
2023/03/25 10:58:17;;;;;;;10.40;3.30;;;;;;;-145.18;100.00;60484.78;5077638;28;20541;-65
2023/03/25 11:00:42;;;;;;;9.17;2.00;;;;;;;-145.18;100.00;60484.78;5086475;28;20061;-65
2023/03/25 11:03:21;;;;;;;5.77;1.83;;;;;;;-145.18;100.00;60484.78;5085453;28;20107;-65
2023/03/25 11:05:47;;;;;;;8.67;2.33;;;;;;;-145.18;100.00;60484.78;5083748;28;20035;-65
2023/03/25 11:08:14;;;;;;;5.37;1.93;;;;;;;-145.18;100.00;60484.78;5082740;28;20031;-65
2023/03/25 11:10:40;;;;;;;5.67;1.83;;;;;;;-145.18;100.00;60484.78;5076146;28;20032;-64
2023/03/25 11:13:12;;;;;;;11.20;2.77;;;;;;;-145.18;100.00;60484.78;5085329;28;20043;-64
2023/03/25 11:15:39;;;;;;;12.37;2.10;;;;;;;-145.18;100.00;60484.78;5085086;28;20101;-64
2023/03/25 11:18:27;;;;;;;11.70;2.60;;;;;;;-145.18;100.00;60484.78;5088177;28;20058;-65
2023/03/25 11:20:59;;;;;;;7.87;2.20;;;;;;;-145.18;100.00;60484.78;5087212;28;20103;-66
2023/03/25 11:23:30;;;;;;;6.07;1.67;;;;;;;-145.18;100.00;60484.78;5086031;28;20031;-66
2023/03/25 11:26:05;;;;;;;7.03;2.28;;;;;;;-145.18;100.00;60484.78;5084880;28;20032;-66
2023/03/25 11:28:43;;;;;;;5.90;1.40;;;;;;;-145.18;100.00;60484.78;5083809;28;20118;-66
2023/03/25 11:31:31;;;;;;;8.43;1.90;;;;;;;-145.18;100.00;60484.78;5085154;28;20395;-65
2023/03/25 11:34:16;;;;;;;7.10;1.47;;;;;;;-145.18;100.00;60484.78;5086077;28;20072;-65